Time;durP1;ratioP1;P1;durP2;ratioP2;P2;SDS_P1;SDS_P2;PMS_P1;PMS_P2;Temp;Humidity;BMP_temperature;BMP_pressure;BME280_temperature;BME280_humidity;BME280_pressure;Samples;Min_cycle;Max_cycle;Signal;HPM_P1;HPM_P2
2022/01/12 00:01:05;;;;;;;11.95;5.32;;;1.90;99.90;;;1.65;89.52;103055.22;5203818;28;20049;-83
2022/01/12 00:03:37;;;;;;;15.05;6.00;;;2.00;99.90;;;1.63;89.39;103046.44;5214851;28;20052;-82
2022/01/12 00:06:09;;;;;;;13.20;5.97;;;2.00;99.90;;;1.59;89.44;103049.41;5213790;28;20042;-81
2022/01/12 00:08:41;;;;;;;13.20;6.03;;;2.00;99.90;;;1.59;89.81;103040.03;5214572;28;20064;-82
2022/01/12 00:11:15;;;;;;;11.90;5.85;;;2.00;99.90;;;1.62;89.49;103049.72;5213753;28;20050;-76
2022/01/12 00:13:47;;;;;;;13.82;5.35;;;2.00;99.90;;;1.64;89.57;103048.25;5213177;28;20053;-82
2022/01/12 00:16:20;;;;;;;10.68;4.60;;;2.00;99.90;;;1.67;89.74;103057.94;5215709;28;20049;-83
2022/01/12 00:18:52;;;;;;;10.65;5.28;;;2.00;99.90;;;1.69;88.80;103049.63;5214975;28;20059;-83
2022/01/12 00:21:24;;;;;;;12.50;5.32;;;2.00;99.90;;;1.71;89.11;103050.72;5211463;28;20046;-82
2022/01/12 00:23:56;;;;;;;13.60;5.50;;;2.00;99.90;;;1.71;89.40;103050.72;5212618;28;20053;-79
2022/01/12 00:26:42;;;;;;;14.63;5.55;;;2.10;99.90;;;1.74;89.30;103045.88;5170490;28;20521;-79
2022/01/12 00:34:54;;;;;;;15.95;5.72;;;2.10;99.90;;;1.81;88.95;103032.91;5167813;28;20054;-79
2022/01/12 00:37:26;;;;;;;12.20;6.47;;;2.10;99.90;;;1.79;89.23;103029.28;5173612;28;20054;-79
2022/01/12 00:39:59;;;;;;;17.45;6.65;;;2.10;99.90;;;1.83;88.87;103028.88;5185094;28;20053;-79
2022/01/12 00:42:32;;;;;;;18.48;7.53;;;2.20;99.90;;;1.84;88.90;103017.81;5189068;28;20049;-79
2022/01/12 00:45:06;;;;;;;19.95;7.22;;;2.20;99.90;;;1.88;88.62;103021.59;5179133;28;20047;-80
2022/01/12 00:47:38;;;;;;;16.85;7.07;;;2.20;99.90;;;1.88;88.60;103019.94;5179339;28;20464;-79
2022/01/12 00:50:11;;;;;;;15.45;8.63;;;2.20;99.90;;;1.92;89.24;103012.56;5170948;28;20052;-79
2022/01/12 00:52:43;;;;;;;13.45;7.22;;;2.20;99.90;;;1.94;89.11;103013.63;5172572;28;20509;-81
2022/01/12 00:55:15;;;;;;;15.98;8.55;;;2.30;99.90;;;1.95;88.54;103033.44;5173469;28;20077;-81
2022/01/12 00:57:49;;;;;;;18.60;7.60;;;2.30;99.90;;;1.98;88.51;103042.41;5172358;28;20042;-81
2022/01/12 01:00:23;;;;;;;14.90;7.00;;;2.30;99.90;;;1.99;88.76;103043.31;5174322;28;20061;-81
2022/01/12 01:02:55;;;;;;;11.30;5.82;;;2.30;99.90;;;1.95;88.46;103038.59;5173892;28;20043;-80
2022/01/12 01:05:31;;;;;;;14.88;5.90;;;2.30;99.90;;;1.99;88.33;103056.19;5174514;28;20054;-81
2022/01/12 01:08:04;;;;;;;13.55;5.75;;;2.30;99.90;;;1.96;88.20;103046.50;5173777;28;20465;-81
2022/01/12 01:10:46;;;;;;;12.23;5.80;;;2.30;99.90;;;1.98;87.93;103050.13;5174758;28;20047;-81
2022/01/12 01:13:24;;;;;;;15.77;6.50;;;2.30;99.90;;;2.00;87.89;103045.16;5175318;28;20050;-81
2022/01/12 01:16:07;;;;;;;13.88;6.05;;;2.30;99.90;;;2.03;88.17;103048.06;5175058;28;20101;-81
2022/01/12 01:27:09;;;;;;;15.65;7.10;;;2.40;99.90;;;2.04;87.78;103078.16;5177045;28;20094;-80
2022/01/12 01:29:42;;;;;;;16.15;6.70;;;2.40;99.90;;;2.02;87.56;103069.34;5177388;28;20070;-81
2022/01/12 01:32:15;;;;;;;16.80;6.93;;;2.40;99.90;;;2.03;87.48;103091.78;5182905;28;20044;-82
2022/01/12 01:34:48;;;;;;;14.52;6.10;;;2.40;99.90;;;2.04;87.99;103088.47;5184721;28;20082;-82
2022/01/12 01:37:20;;;;;;;16.63;7.05;;;2.40;99.90;;;2.05;87.75;103069.69;5183343;28;20061;-81
2022/01/12 01:39:52;;;;;;;18.65;5.97;;;2.30;99.90;;;2.03;87.63;103061.84;5169220;28;20054;-81
2022/01/12 01:42:30;;;;;;;13.30;5.97;;;2.30;99.90;;;1.99;87.48;103063.91;5168740;28;20046;-81
2022/01/12 01:53:34;;;;;;;17.20;7.10;;;2.30;99.90;;;1.84;87.22;103083.78;5174209;28;20046;-81
2022/01/12 01:56:06;;;;;;;18.13;7.57;;;2.20;99.90;;;1.80;87.25;103085.13;5173004;28;20393;-81
2022/01/12 01:58:39;;;;;;;17.23;7.35;;;2.20;99.90;;;1.78;86.76;103089.19;5173934;28;20050;-79
2022/01/12 02:01:12;;;;;;;16.27;8.52;;;2.20;99.90;;;1.73;87.36;103090.34;5174027;28;20046;-81
2022/01/12 02:03:44;;;;;;;17.00;7.45;;;2.10;99.90;;;1.72;87.17;103093.69;5175864;28;20057;-79
2022/01/12 02:06:17;;;;;;;20.38;7.80;;;2.10;99.90;;;1.70;86.91;103092.63;5174963;28;20081;-81
2022/01/12 02:08:49;;;;;;;19.25;6.97;;;2.10;99.90;;;1.67;86.88;103089.69;5173991;28;20046;-81
2022/01/12 02:11:27;;;;;;;20.48;7.07;;;2.00;99.90;;;1.63;86.90;103092.72;5177741;28;20054;-81
2022/01/12 02:13:59;;;;;;;14.50;5.53;;;2.00;99.90;;;1.59;87.54;103100.84;5175747;28;20050;-79
2022/01/12 02:16:39;;;;;;;13.43;6.28;;;1.90;99.90;;;1.60;87.53;103107.78;5174157;28;20468;-80
2022/01/12 02:19:19;;;;;;;11.32;4.82;;;1.90;99.90;;;1.59;87.69;103116.25;5174813;28;20069;-79
2022/01/12 02:36:09;;;;;;;11.35;5.63;;;1.90;99.90;;;1.57;88.38;103120.34;5175144;28;20089;-80
2022/01/12 02:41:32;;;;;;;12.95;5.30;;;1.90;99.90;;;1.66;88.98;103126.44;5175909;28;20057;-81
2022/01/12 02:55:25;;;;;;;11.80;4.80;;;2.10;99.90;;;1.81;88.33;103130.66;5178393;28;20061;-81
2022/01/12 02:57:57;;;;;;;9.90;4.63;;;2.10;99.90;;;1.83;88.27;103118.91;5179362;28;20054;-81
2022/01/12 03:00:45;;;;;;;10.07;4.57;;;2.10;99.90;;;1.83;88.45;103113.75;5180021;28;20046;-81
2022/01/12 03:03:21;;;;;;;11.45;5.13;;;2.10;99.90;;;1.85;88.44;103116.47;5185216;28;20058;-82
2022/01/12 03:05:59;;;;;;;12.48;4.82;;;2.20;99.90;;;1.83;88.48;103113.75;5186152;28;20054;-81
2022/01/12 03:08:36;;;;;;;12.35;5.07;;;2.20;99.90;;;1.84;88.18;103100.13;5178733;28;20054;-79
2022/01/12 03:11:13;;;;;;;12.23;4.88;;;2.20;99.90;;;1.84;87.90;103089.84;5174121;28;20050;-80
2022/01/12 03:13:45;;;;;;;9.45;4.65;;;2.20;99.90;;;1.78;87.99;103093.44;5172866;28;20061;-81
2022/01/12 03:16:20;;;;;;;11.00;4.85;;;2.20;99.90;;;1.85;87.77;103091.66;5173857;28;20054;-83
2022/01/12 03:18:54;;;;;;;10.52;4.90;;;2.20;99.90;;;1.84;87.96;103095.00;5174424;28;20054;-82
2022/01/12 03:21:30;;;;;;;9.77;5.00;;;2.20;99.90;;;1.84;87.80;103088.94;5173915;28;20051;-82
2022/01/12 03:24:04;;;;;;;14.35;5.20;;;2.10;99.90;;;1.77;87.63;103082.22;5173829;28;20045;-81
2022/01/12 03:26:38;;;;;;;13.88;6.35;;;2.10;99.90;;;1.76;87.49;103075.25;5176536;28;20452;-81
2022/01/12 03:29:10;;;;;;;12.55;4.78;;;2.10;99.90;;;1.75;87.75;103065.69;5177249;28;20057;-82
2022/01/12 03:31:42;;;;;;;14.10;6.38;;;2.10;99.90;;;1.74;88.20;103060.41;5175506;28;20046;-81
2022/01/12 03:34:25;;;;;;;18.27;7.68;;;2.10;99.90;;;1.75;87.96;103068.28;5172576;28;20050;-80
2022/01/12 04:09:55;;;;;;;16.20;8.10;;;2.10;99.90;;;1.76;88.64;103092.31;5168331;28;20046;-79
2022/01/12 04:12:28;;;;;;;14.20;6.28;;;2.10;99.90;;;1.77;88.21;103092.50;5167924;28;20069;-80
2022/01/12 04:15:00;;;;;;;18.35;6.72;;;2.10;99.90;;;1.72;88.42;103093.69;5168053;28;20147;-79
2022/01/12 04:17:32;;;;;;;24.73;11.38;;;2.10;99.90;;;1.70;88.69;103097.75;5167207;28;20046;-80
2022/01/12 04:20:06;;;;;;;27.02;11.63;;;2.10;99.90;;;1.67;88.76;103093.94;5167681;28;20046;-79
2022/01/12 04:25:29;;;;;;;13.93;5.60;;;2.10;99.90;;;1.69;88.60;103108.75;5167828;28;20090;-80
2022/01/12 04:28:00;;;;;;;13.77;5.32;;;2.10;99.90;;;1.70;88.89;103114.84;5166671;28;20047;-80
2022/01/12 04:30:32;;;;;;;10.20;5.07;;;2.10;99.90;;;1.73;88.62;103126.34;5167930;28;20077;-80
2022/01/12 04:33:04;;;;;;;15.65;6.90;;;2.10;99.90;;;1.79;88.62;103114.16;5168080;28;20050;-80
2022/01/12 04:35:45;;;;;;;12.80;5.53;;;2.20;99.90;;;1.83;88.86;103116.31;5167089;28;20050;-79
2022/01/12 04:38:21;;;;;;;15.70;5.75;;;2.20;99.90;;;1.85;88.44;103117.38;5168616;28;20476;-80
2022/01/12 04:40:53;;;;;;;11.82;5.07;;;2.20;99.90;;;1.87;88.58;103112.41;5168981;28;20046;-79
2022/01/12 04:43:26;;;;;;;13.35;5.30;;;2.20;99.90;;;1.90;88.32;103121.38;5168304;28;20054;-79
2022/01/12 04:46:21;;;;;;;13.07;6.72;;;2.20;99.90;;;1.93;88.20;103125.00;5167730;28;20065;-80
2022/01/12 04:48:57;;;;;;;10.55;5.10;;;2.20;99.90;;;1.94;88.33;103132.88;5166932;28;20047;-80
2022/01/12 04:51:29;;;;;;;14.75;6.63;;;2.20;99.90;;;1.95;88.27;103118.34;5166992;28;20050;-80
2022/01/12 04:54:02;;;;;;;13.48;7.85;;;2.30;99.90;;;1.91;88.14;103117.13;5167145;28;20050;-80
2022/01/12 04:56:34;;;;;;;12.00;5.75;;;2.30;99.90;;;1.98;88.25;103119.59;5167089;28;20050;-78
2022/01/12 04:59:06;;;;;;;14.73;6.68;;;2.30;99.90;;;2.02;88.13;103115.66;5168338;28;20051;-79
2022/01/12 05:01:49;;;;;;;15.48;5.93;;;2.30;99.90;;;2.02;87.99;103119.19;5168135;28;20058;-78
2022/01/12 05:07:26;;;;;;;13.38;5.30;;;2.30;99.90;;;2.04;87.81;103119.34;5168964;28;20133;-80
2022/01/12 05:12:54;;;;;;;12.60;5.03;;;2.30;99.90;;;2.00;87.83;103115.53;5151686;28;19976;-80
2022/01/12 05:15:29;;;;;;;14.68;4.93;;;2.30;99.90;;;1.99;87.87;103123.09;5168334;28;20066;-80
2022/01/12 05:18:01;;;;;;;13.73;5.90;;;2.30;99.90;;;1.93;87.40;103107.00;5167703;28;20050;-79
2022/01/12 05:20:34;;;;;;;12.73;5.07;;;2.30;99.90;;;2.01;87.85;103129.28;5168122;28;20266;-80
2022/01/12 05:23:06;;;;;;;10.38;5.15;;;2.30;99.90;;;2.01;88.12;103124.16;5166986;28;20413;-81
2022/01/12 05:25:40;;;;;;;13.63;5.22;;;2.30;99.90;;;1.89;88.10;103101.53;5172947;28;20058;-79
2022/01/12 05:28:12;;;;;;;12.98;5.95;;;2.30;99.90;;;2.03;87.90;103123.56;5172776;28;20050;-80
2022/01/12 05:30:44;;;;;;;10.38;4.90;;;2.30;99.90;;;2.01;87.89;103111.28;5175396;28;20058;-81
2022/01/12 05:33:17;;;;;;;14.95;5.72;;;2.30;99.90;;;2.03;88.11;103117.53;5176470;28;20061;-81
2022/01/12 05:35:49;;;;;;;11.73;5.80;;;2.40;99.90;;;2.07;88.08;103125.72;5175796;28;20050;-80
2022/01/12 05:38:21;;;;;;;13.32;5.32;;;2.40;99.90;;;2.09;88.26;103113.03;5176090;28;20054;-81
2022/01/12 05:40:58;;;;;;;12.65;5.00;;;2.40;99.90;;;2.12;87.91;103139.06;5176411;28;20062;-81
2022/01/12 05:43:32;;;;;;;14.43;6.50;;;2.40;99.90;;;2.14;87.80;103132.41;5176708;28;20057;-81
2022/01/12 05:46:10;;;;;;;12.73;5.65;;;2.40;99.90;;;2.16;87.87;103120.63;5176439;28;20051;-80
2022/01/12 05:51:34;;;;;;;15.23;6.32;;;2.50;99.90;;;2.21;88.03;103140.03;5176719;28;20055;-80
2022/01/12 05:54:06;;;;;;;15.35;7.10;;;2.50;99.90;;;2.22;88.18;103131.59;5176723;28;20069;-81
2022/01/12 05:56:39;;;;;;;15.63;6.32;;;2.50;99.90;;;2.22;87.98;103125.50;5177353;28;20060;-81
2022/01/12 05:59:11;;;;;;;14.23;6.25;;;2.50;99.90;;;2.24;87.83;103130.06;5229987;23;20046;-68
2022/01/12 06:01:43;;;;;;;14.80;6.57;;;2.50;99.90;;;2.29;87.85;103128.00;5160991;28;20065;-69
2022/01/12 06:04:15;;;;;;;11.88;6.45;;;2.50;99.90;;;2.29;87.83;103128.00;5167673;28;20046;-71
2022/01/12 06:06:47;;;;;;;16.80;6.28;;;2.50;99.90;;;2.30;87.94;103130.72;5167612;28;20050;-70
2022/01/12 06:09:19;;;;;;;20.73;7.55;;;2.50;99.90;;;2.33;87.80;103146.47;5167580;28;20058;-69
2022/01/12 06:11:52;;;;;;;18.20;7.85;;;2.60;99.90;;;2.36;88.10;103151.03;5167410;28;20085;-69
2022/01/12 06:14:24;;;;;;;20.25;8.00;;;2.60;99.90;;;2.29;88.28;103138.28;5167296;28;20080;-69
2022/01/12 06:16:56;;;;;;;17.13;7.30;;;2.60;99.90;;;2.31;87.96;103142.84;5167271;28;20765;-69
2022/01/12 06:19:28;;;;;;;18.13;9.13;;;2.60;99.90;;;2.33;88.35;103148.13;5167697;28;20419;-69
2022/01/12 06:22:00;;;;;;;15.93;7.22;;;2.60;99.90;;;2.33;87.99;103158.44;5167211;28;20426;-69
2022/01/12 06:24:32;;;;;;;17.80;6.65;;;2.60;99.90;;;2.30;87.91;103156.47;5167123;28;20050;-69
2022/01/12 06:27:09;;;;;;;16.00;6.30;;;2.60;99.90;;;2.33;87.79;103166.16;5166914;28;20050;-69
2022/01/12 06:29:44;;;;;;;18.63;8.05;;;2.60;99.90;;;2.32;88.23;103166.91;5167484;28;20137;-69
2022/01/12 06:32:16;;;;;;;14.77;6.30;;;2.60;99.90;;;2.33;88.17;103167.06;5167156;28;20074;-69
2022/01/12 06:34:49;;;;;;;17.63;7.18;;;2.60;99.90;;;2.34;87.98;103173.13;5166163;28;20076;-69
2022/01/12 06:37:21;;;;;;;15.52;6.30;;;2.70;99.90;;;2.38;87.92;103164.97;5166635;28;20054;-69
2022/01/12 06:39:53;;;;;;;20.83;8.43;;;2.70;99.90;;;2.40;87.92;103159.22;5166618;28;20454;-69
2022/01/12 06:42:28;;;;;;;17.23;6.45;;;2.70;99.90;;;2.40;87.73;103154.06;5166331;28;20068;-69
2022/01/12 06:45:00;;;;;;;16.23;6.90;;;2.70;99.90;;;2.42;88.02;103157.75;5166286;28;20049;-69
2022/01/12 06:47:32;;;;;;;13.32;5.68;;;2.70;99.90;;;2.42;87.55;103162.00;5166500;28;20053;-69
2022/01/12 06:50:06;;;;;;;16.90;7.00;;;2.70;99.90;;;2.40;87.57;103160.91;5166476;28;20057;-69
2022/01/12 06:52:38;;;;;;;12.80;5.90;;;2.70;99.90;;;2.41;87.41;103166.22;5166662;28;20054;-69
2022/01/12 06:55:10;;;;;;;13.30;5.30;;;2.70;99.90;;;2.39;87.58;103162.56;5165982;28;20046;-69
2022/01/12 06:57:44;;;;;;;20.23;11.43;;;2.70;99.90;;;2.37;87.39;103160.59;5166473;28;20050;-69
2022/01/12 07:00:17;;;;;;;14.63;7.53;;;2.70;99.90;;;2.36;87.13;103151.97;5166098;28;20054;-70
2022/01/12 07:02:49;;;;;;;13.52;5.75;;;2.70;99.90;;;2.38;87.28;103159.84;5165930;28;20050;-70
2022/01/12 07:05:21;;;;;;;10.77;5.18;;;2.70;99.90;;;2.39;87.17;103170.28;5165811;28;20319;-70
2022/01/12 07:07:53;;;;;;;15.75;6.30;;;2.70;99.90;;;2.38;86.87;103164.97;5166261;28;20491;-70
2022/01/12 07:10:25;;;;;;;13.43;6.03;;;2.70;99.90;;;2.39;87.04;103157.41;5166057;28;20140;-70
2022/01/12 07:12:59;;;;;;;17.63;8.10;;;2.70;99.90;;;2.38;87.19;103153.03;5165942;28;20487;-70
2022/01/12 07:15:31;;;;;;;16.05;7.55;;;2.70;99.90;;;2.38;86.79;103160.75;5165473;28;20053;-70
2022/01/12 07:18:04;;;;;;;15.07;6.60;;;2.70;99.90;;;2.40;86.85;103169.53;5166013;28;20077;-70
2022/01/12 07:20:36;;;;;;;20.27;8.40;;;2.70;99.90;;;2.32;87.06;103175.53;5165919;28;20116;-70
2022/01/12 07:23:09;;;;;;;16.27;8.60;;;2.70;99.90;;;2.23;87.01;103173.66;5166109;28;20464;-70
2022/01/12 07:25:41;;;;;;;19.15;8.18;;;2.60;99.90;;;2.18;87.75;103173.19;5165123;28;20132;-70
2022/01/12 07:28:14;;;;;;;17.77;7.25;;;2.60;99.90;;;2.20;87.84;103173.31;5165835;28;20050;-71
2022/01/12 07:30:46;;;;;;;18.55;7.80;;;2.60;99.90;;;2.24;87.84;103178.97;5165842;28;20050;-71
2022/01/12 07:33:20;;;;;;;15.85;7.18;;;2.60;99.90;;;2.28;87.80;103186.28;5165474;28;20042;-70
2022/01/12 07:35:53;;;;;;;19.00;7.72;;;2.60;99.90;;;2.33;88.07;103202.19;5164861;28;20419;-71
2022/01/12 07:38:25;;;;;;;12.63;6.32;;;2.70;99.90;;;2.38;87.54;103206.16;5165585;28;20054;-71
2022/01/12 07:40:57;;;;;;;15.52;6.82;;;2.70;99.90;;;2.44;87.43;103225.75;5153951;28;20050;-70
2022/01/12 07:43:31;;;;;;;14.88;7.50;;;2.70;99.90;;;2.49;87.69;103230.50;5165379;28;20505;-71
2022/01/12 07:46:03;;;;;;;13.10;6.63;;;2.80;99.90;;;2.52;87.36;103236.88;5164334;28;20050;-71
2022/01/12 07:48:35;;;;;;;15.43;5.97;;;2.80;99.90;;;2.55;87.35;103246.59;5164849;28;20145;-71
2022/01/12 07:51:08;;;;;;;13.27;5.60;;;2.80;99.90;;;2.58;87.63;103252.06;5165522;28;20054;-71
2022/01/12 07:53:40;;;;;;;13.65;6.22;;;2.80;99.90;;;2.58;87.17;103257.22;5164913;28;20076;-71
2022/01/12 07:56:12;;;;;;;13.77;5.65;;;2.90;99.90;;;2.60;87.39;103264.31;5164571;28;20050;-71
2022/01/12 07:58:46;;;;;;;14.43;5.32;;;2.90;99.90;;;2.61;87.49;103267.84;5164990;28;20056;-71
2022/01/12 08:01:18;;;;;;;13.10;6.30;;;2.90;99.90;;;2.56;87.29;103264.78;5165424;28;20050;-71
2022/01/12 08:03:50;;;;;;;14.65;6.22;;;2.90;99.90;;;2.57;86.74;103265.69;5164077;28;20050;-71
2022/01/12 08:06:22;;;;;;;15.60;5.95;;;2.90;99.90;;;2.57;86.95;103255.38;5164870;28;20047;-71
2022/01/12 08:08:54;;;;;;;13.88;7.00;;;2.90;99.90;;;2.60;86.94;103264.31;5151792;28;20065;-71
2022/01/12 08:11:26;;;;;;;16.42;6.20;;;2.90;99.90;;;2.65;87.15;103267.41;5144548;28;20046;-71
2022/01/12 08:14:00;;;;;;;13.05;7.22;;;2.90;99.90;;;2.67;86.66;103269.41;5144533;28;20484;-70
2022/01/12 08:16:32;;;;;;;14.93;6.15;;;3.00;99.90;;;2.66;86.70;103275.28;5144693;28;20062;-72
2022/01/12 08:19:04;;;;;;;13.23;6.50;;;3.00;99.90;;;2.71;86.66;103270.63;5144283;28;20050;-71
2022/01/12 08:21:37;;;;;;;16.05;7.78;;;3.00;99.90;;;2.73;86.83;103279.41;5158075;28;20046;-71
2022/01/12 08:24:09;;;;;;;12.65;6.03;;;3.00;99.90;;;2.77;86.39;103281.56;5156781;28;20047;-71
2022/01/12 08:26:42;;;;;;;14.85;6.28;;;3.00;99.90;;;2.80;86.59;103291.28;5162658;28;20562;-71
2022/01/12 08:29:16;;;;;;;13.73;6.60;;;3.10;99.90;;;2.80;86.29;103292.19;5163374;28;20047;-71
2022/01/12 08:31:48;;;;;;;17.70;6.25;;;3.10;99.90;;;2.85;86.27;103297.84;5163456;28;20140;-71
2022/01/12 08:34:20;;;;;;;15.48;6.35;;;3.10;99.90;;;2.89;86.14;103302.56;5155262;28;20038;-71
2022/01/12 08:36:52;;;;;;;14.93;6.00;;;3.10;99.90;;;2.93;85.80;103300.50;5155398;28;20050;-71
2022/01/12 08:39:24;;;;;;;18.40;7.03;;;3.10;99.90;;;2.92;85.88;103303.78;5162702;28;20042;-72
2022/01/12 08:41:56;;;;;;;16.92;7.45;;;3.20;99.90;;;2.92;85.79;103314.09;5164059;28;20054;-71
2022/01/12 08:44:30;;;;;;;17.42;7.28;;;3.20;99.90;;;2.94;85.82;103316.88;5163638;28;20046;-71
2022/01/12 08:47:03;;;;;;;18.67;7.55;;;3.20;99.90;;;2.92;85.87;103313.19;5164288;28;20057;-71
2022/01/12 08:49:35;;;;;;;16.38;7.65;;;3.20;99.90;;;2.87;85.77;103315.31;5164127;28;20050;-71
2022/01/12 08:52:08;;;;;;;16.33;7.45;;;3.20;99.90;;;2.87;85.66;103312.72;5164019;28;20046;-71
2022/01/12 08:54:40;;;;;;;15.50;7.25;;;3.20;99.90;;;2.84;85.41;103309.81;5163598;28;20046;-72
2022/01/12 08:57:12;;;;;;;19.05;8.85;;;3.20;99.90;;;2.83;85.91;103307.09;5163782;28;20053;-71
2022/01/12 08:59:46;;;;;;;19.90;8.65;;;3.20;99.90;;;2.84;85.77;103303.75;5163693;28;20507;-71
2022/01/12 09:02:18;;;;;;;19.80;8.50;;;3.20;99.90;;;2.89;85.77;103300.00;5164174;28;20054;-71
2022/01/12 09:04:50;;;;;;;19.45;8.07;;;3.20;99.90;;;2.92;85.98;103301.22;5163482;28;20053;-71
2022/01/12 09:07:22;;;;;;;17.70;7.57;;;3.20;99.90;;;2.92;85.93;103306.38;5163892;28;20046;-72
2022/01/12 09:09:54;;;;;;;14.70;6.82;;;3.30;99.90;;;2.95;85.77;103305.81;5163807;28;20046;-71
2022/01/12 09:12:27;;;;;;;14.05;6.43;;;3.30;99.90;;;2.96;85.81;103305.97;5164026;28;20050;-72
2022/01/12 09:15:01;;;;;;;17.98;7.90;;;3.30;99.90;;;3.03;85.58;103312.66;5163311;28;20061;-71
2022/01/12 09:17:33;;;;;;;15.50;7.28;;;3.30;99.90;;;3.09;85.53;103317.56;5163948;28;20403;-71
2022/01/12 09:20:08;;;;;;;16.88;7.57;;;3.40;99.90;;;3.10;85.77;103309.06;5163611;28;20050;-71
2022/01/12 09:22:40;;;;;;;17.77;8.48;;;3.40;99.90;;;3.14;85.48;103311.22;5163947;28;20054;-71
2022/01/12 09:25:13;;;;;;;16.00;7.63;;;3.40;99.90;;;3.16;85.41;103310.63;5163357;28;20137;-71
2022/01/12 09:27:45;;;;;;;15.13;6.90;;;3.50;99.90;;;3.19;85.64;103304.84;5163662;28;20046;-72
2022/01/12 09:30:19;;;;;;;15.98;7.28;;;3.50;99.90;;;3.24;85.55;103303.69;5163769;28;20050;-71
2022/01/12 09:32:51;;;;;;;17.23;7.10;;;3.50;99.90;;;3.39;85.16;103313.03;5163611;28;20104;-72
2022/01/12 09:35:23;;;;;;;15.65;7.10;;;3.50;99.90;;;3.39;84.58;103318.19;5163284;28;20126;-72
2022/01/12 09:37:55;;;;;;;17.92;7.15;;;3.60;99.90;;;3.42;84.86;103321.06;5163735;28;20051;-72
2022/01/12 09:40:27;;;;;;;17.55;7.50;;;3.60;99.90;;;3.47;84.97;103325.03;5163753;28;20184;-71
2022/01/12 09:43:05;;;;;;;15.43;6.95;;;3.60;99.90;;;3.54;84.44;103330.06;5163383;28;20054;-71
2022/01/12 09:45:39;;;;;;;18.42;6.93;;;3.70;99.90;;;3.59;84.42;103343.47;5163217;28;20125;-71
2022/01/12 09:48:11;;;;;;;14.68;6.82;;;3.70;99.90;;;3.64;84.08;103349.06;5163746;28;20392;-72
2022/01/12 09:50:43;;;;;;;14.55;6.75;;;3.80;99.90;;;3.68;84.10;103358.97;5163580;28;20372;-71
2022/01/12 09:53:15;;;;;;;15.02;6.57;;;3.80;99.90;;;3.73;84.42;103365.50;5163407;28;20511;-71
2022/01/12 09:55:48;;;;;;;14.98;7.13;;;3.80;99.90;;;3.78;84.17;103359.13;5163233;28;20058;-72
2022/01/12 09:58:20;;;;;;;13.65;5.65;;;3.90;99.90;;;3.81;83.63;103355.22;5163441;28;20085;-72
2022/01/12 10:01:04;;;;;;;13.68;6.50;;;3.90;99.90;;;3.83;83.73;103365.69;5163692;28;20060;-70
2022/01/12 10:03:36;;;;;;;15.00;6.88;;;4.00;99.90;;;3.80;83.78;103358.56;5163551;28;20411;-72
2022/01/12 10:06:13;;;;;;;15.73;6.78;;;4.00;99.90;;;3.76;83.33;103352.91;5163174;28;20060;-69
2022/01/12 10:08:46;;;;;;;15.73;6.63;;;4.00;99.90;;;3.63;82.99;103363.63;5163839;28;20483;-69
2022/01/12 10:11:18;;;;;;;15.80;6.93;;;3.90;99.90;;;3.56;83.47;103349.94;5166538;28;20050;-70
2022/01/12 10:13:57;;;;;;;15.25;6.88;;;3.90;99.90;;;3.54;83.62;103347.22;5166861;28;20046;-69
2022/01/12 10:16:30;;;;;;;15.20;6.50;;;3.80;99.90;;;3.63;83.61;103344.66;5167324;28;20046;-69
2022/01/12 10:19:03;;;;;;;16.05;6.68;;;3.90;99.90;;;3.70;83.49;103345.44;5167518;28;20507;-70
2022/01/12 10:21:37;;;;;;;17.48;6.32;;;3.90;99.90;;;3.75;83.36;103338.19;5167319;28;20050;-70
2022/01/12 10:24:17;;;;;;;18.60;7.70;;;3.90;99.90;;;3.76;83.19;103340.00;5166585;28;20134;-70
2022/01/12 10:26:51;;;;;;;16.67;6.70;;;3.90;99.90;;;3.83;83.26;103337.28;5167039;28;20054;-69
2022/01/12 10:29:26;;;;;;;16.88;6.60;;;4.00;99.90;;;3.90;82.96;103338.84;5158570;28;20510;-70
2022/01/12 10:32:02;;;;;;;18.10;7.13;;;4.00;99.90;;;3.91;82.63;103341.59;5146886;28;20523;-70
2022/01/12 10:34:40;;;;;;;14.50;6.35;;;4.00;99.90;;;3.96;82.55;103344.63;5146391;28;20078;-70
2022/01/12 10:37:15;;;;;;;15.63;6.15;;;4.10;99.90;;;4.00;82.88;103341.59;5146778;28;20058;-69
2022/01/12 10:39:50;;;;;;;20.20;7.10;;;4.10;99.90;;;4.03;82.73;103337.66;5146734;28;20051;-70
2022/01/12 10:42:25;;;;;;;12.80;5.40;;;4.10;99.90;;;4.07;82.89;103337.22;5146752;28;20544;-70
2022/01/12 10:45:01;;;;;;;16.98;6.47;;;4.20;99.90;;;4.12;82.67;103335.09;5145869;28;20420;-70
2022/01/12 10:47:35;;;;;;;14.32;6.35;;;4.20;99.90;;;4.13;82.26;103336.03;5146330;28;20102;-69
2022/01/12 10:50:11;;;;;;;16.25;6.95;;;4.20;99.90;;;4.11;82.35;103324.59;5146545;28;20443;-69
2022/01/12 10:52:50;;;;;;;17.77;7.40;;;4.20;99.90;;;4.08;82.43;103331.28;5146229;28;20082;-70
2022/01/12 10:55:22;;;;;;;12.93;6.03;;;4.20;99.90;;;4.08;82.86;103325.22;5145577;28;20077;-69
2022/01/12 10:57:58;;;;;;;17.20;7.15;;;4.20;99.90;;;4.16;83.64;103339.81;5146045;28;20177;-70
2022/01/12 11:00:30;;;;;;;20.02;7.22;;;4.30;99.90;;;4.20;83.06;103335.88;5146086;28;20061;-69
2022/01/12 11:03:06;;;;;;;17.15;8.45;;;4.40;99.90;;;4.20;82.56;103338.47;5146316;28;20053;-69
2022/01/12 11:05:38;;;;;;;14.05;6.30;;;4.30;99.90;;;4.23;82.75;103334.50;5119470;28;20046;-70
2022/01/12 11:08:12;;;;;;;16.08;6.32;;;4.40;99.90;;;4.23;82.30;103341.34;5144151;28;20408;-69
2022/01/12 11:10:44;;;;;;;13.75;5.75;;;4.40;99.90;;;4.23;81.88;103343.91;5145661;28;20057;-69
2022/01/12 11:13:17;;;;;;;15.43;6.78;;;4.40;99.90;;;4.23;81.92;103342.25;5146113;28;20057;-69
2022/01/12 11:15:50;;;;;;;13.18;5.30;;;4.40;99.90;;;4.26;82.24;103341.66;5145218;28;20053;-68
2022/01/12 11:18:27;;;;;;;14.85;4.97;;;4.40;99.90;;;4.31;81.92;103338.78;5145975;28;20048;-69
2022/01/12 11:21:04;;;;;;;14.63;5.85;;;4.40;99.90;;;4.28;81.39;103340.13;5145481;28;20055;-69
2022/01/12 11:23:39;;;;;;;14.95;5.18;;;4.40;99.90;;;4.27;81.23;103346.06;5145964;28;20077;-69
2022/01/12 11:26:17;;;;;;;14.38;6.03;;;4.40;99.90;;;4.25;80.97;103337.25;5145002;28;20419;-69
2022/01/12 11:28:51;;;;;;;14.15;5.63;;;4.40;99.90;;;4.23;81.03;103342.25;5145405;28;20082;-69
2022/01/12 11:31:26;;;;;;;14.45;5.65;;;4.40;99.90;;;4.22;80.48;103345.59;5145286;28;20047;-70
2022/01/12 11:34:00;;;;;;;14.25;5.70;;;4.40;99.90;;;4.22;80.31;103347.25;5145651;28;20047;-70
2022/01/12 11:36:38;;;;;;;14.05;6.00;;;4.40;99.90;;;4.21;80.58;103335.13;5145257;28;20055;-70
2022/01/12 11:39:12;;;;;;;18.38;5.90;;;4.40;99.90;;;4.22;80.35;103339.50;5145571;28;20051;-70
2022/01/12 11:41:48;;;;;;;18.98;7.30;;;4.40;99.90;;;4.21;80.63;103348.03;5145489;28;20047;-70
2022/01/12 11:44:22;;;;;;;16.95;6.57;;;4.30;99.90;;;4.20;80.16;103349.69;5145129;28;20476;-70
2022/01/12 11:46:57;;;;;;;14.80;5.97;;;4.30;99.90;;;4.23;80.50;103356.81;5145534;28;20055;-76
2022/01/12 11:49:34;;;;;;;14.90;5.35;;;4.30;99.90;;;4.27;81.36;103359.88;5145625;28;20372;-70
2022/01/12 11:52:16;;;;;;;12.80;5.95;;;4.40;99.90;;;4.26;81.12;103352.91;5145693;28;20070;-69
2022/01/12 11:54:51;;;;;;;14.57;5.60;;;4.40;99.90;;;4.25;80.92;103355.34;5144866;28;20047;-69
2022/01/12 11:57:34;;;;;;;15.43;6.88;;;4.40;99.90;;;4.24;81.07;103348.34;5144870;28;20054;-69
2022/01/12 12:00:11;;;;;;;11.95;5.43;;;4.40;99.90;;;4.25;80.97;103350.16;5189264;23;20053;-77
2022/01/12 12:02:46;;;;;;;17.33;6.22;;;4.40;99.90;;;4.27;81.41;103343.47;5183811;28;20042;-78
2022/01/12 12:05:22;;;;;;;14.25;5.72;;;4.40;99.90;;;4.30;81.47;103348.94;5188367;28;20096;-80
2022/01/12 12:07:58;;;;;;;17.02;6.85;;;4.40;99.90;;;4.30;82.04;103355.03;5188794;28;20053;-80
2022/01/12 12:10:35;;;;;;;17.50;6.38;;;4.40;99.90;;;4.32;82.15;103355.19;5187401;28;20050;-79
2022/01/12 12:13:11;;;;;;;18.60;6.25;;;4.50;99.90;;;4.31;81.68;103353.38;5187231;28;20049;-78
2022/01/12 12:15:43;;;;;;;16.83;6.07;;;4.40;99.90;;;4.30;81.94;103346.34;5187087;28;20076;-80
2022/01/12 12:18:17;;;;;;;14.23;6.13;;;4.40;99.90;;;4.28;81.44;103351.38;5186179;28;20432;-79
2022/01/12 12:20:52;;;;;;;16.83;5.63;;;4.40;99.90;;;4.26;81.53;103357.16;5186887;28;20543;-80
2022/01/12 12:23:28;;;;;;;15.85;5.95;;;4.40;99.90;;;4.26;81.42;103358.06;5187173;28;20502;-79